首页
METAR-TAF:

METAR-TAF

机场 :

地拉那特蕾莎修女國際機場

地拉那, 阿尔巴尼亚

纬度: 41-20N, 经度: 019-47E, 海拔: 89米

当前天气观测

该预报发布于20分钟前的08:50 UTC
风速1节,风向西南
温度 22°C
湿度 60%
气压 1019 hPa
能见度10公里或以上
1500米以下无云,无积雨云

METAR: LATI 170850Z 22001KT CAVOK 22/14 Q1019 NOSIG

时间: 11:10 (09:10 UTC)

预报

该预报发布于4小时和10分钟前的05:00 UTC
预报有效从17日的 06点(UTC)到 18日的 06点(UTC)
风速3节,风向多变
能见度10公里或以上
1500米以下无云,无积雨云
几率 40%
从 18日的 00点(UTC)到 18日的 06点(UTC)
能見度: 4000
轻雾

TAF: LATI 170500Z 1706/1806 VRB03KT CAVOK PROB40 1800/1806 4000 BR NSC

超过4000个机场的气象观测和天气预报(METAR&TAF报告)。

可查询的气象台以黄色和红色小点在地图上表示。

将鼠标移到小点上方,可查看气象台名称。

然后点击查看天气观测和预报。

如需切换地图:点击带黑十字的绿色按钮放大地图;点击带横线的绿色按钮缩小地图;或者点击绿色箭头查看邻近地区的地图。


METAR-TAF: